createdAt,value
2018-05-19T03:01:08.653Z,7.63
2018-05-19T03:02:08.712Z,7.63
2018-05-19T03:03:08.916Z,7.61
2018-05-19T03:05:09.316Z,7.57
2018-05-19T03:06:09.359Z,7.53
2018-05-19T03:07:10.428Z,7.58
2018-05-19T03:08:09.726Z,7.61
2018-05-19T03:09:09.790Z,7.57
2018-05-19T03:10:07.913Z,7.61
2018-05-19T03:11:08.079Z,7.53
2018-05-19T03:12:08.058Z,7.56
2018-05-19T03:13:08.234Z,7.53
2018-05-19T03:14:08.426Z,7.60
2018-05-19T03:15:08.670Z,7.56
2018-05-19T03:16:08.840Z,7.57
2018-05-19T03:17:09.142Z,7.58
2018-05-19T03:18:09.192Z,7.60
2018-05-19T03:19:09.210Z,7.60
2018-05-19T03:20:09.418Z,7.57
2018-05-19T03:21:09.559Z,7.60
2018-05-19T03:22:09.786Z,7.56
2018-05-19T03:23:10.056Z,7.60
2018-05-19T03:24:10.160Z,7.63
2018-05-19T03:25:10.471Z,7.60
2018-05-19T03:26:10.537Z,7.72
2018-05-19T03:27:10.759Z,7.70
2018-05-19T03:28:10.916Z,7.75
2018-05-19T03:29:11.105Z,7.75
2018-05-19T03:30:11.217Z,7.73
2018-05-19T03:31:11.541Z,7.79
2018-05-19T03:32:11.680Z,7.79
2018-05-19T03:33:11.619Z,7.79
2018-05-19T03:34:11.915Z,7.76
2018-05-19T03:35:11.934Z,7.83
2018-05-19T03:36:12.298Z,7.82
2018-05-19T03:37:12.432Z,7.79
2018-05-19T03:38:12.691Z,7.77
2018-05-19T03:39:12.955Z,7.72
2018-05-19T03:40:12.965Z,7.75
2018-05-19T03:41:13.174Z,7.73
2018-05-19T03:42:13.278Z,7.69
2018-05-19T03:43:13.421Z,7.72
2018-05-19T03:44:13.556Z,7.63
2018-05-19T03:45:13.834Z,7.63
2018-05-19T03:46:14.062Z,7.63
2018-05-19T03:47:14.816Z,7.56
2018-05-19T03:48:14.362Z,7.72
2018-05-19T03:49:14.597Z,7.61
2018-05-19T03:50:14.974Z,7.61
2018-05-19T03:51:14.960Z,7.72
2018-05-19T03:52:15.097Z,7.75
2018-05-19T03:53:15.230Z,7.72
2018-05-19T03:54:15.425Z,7.66
2018-05-19T03:55:15.596Z,7.70
2018-05-19T03:56:16.068Z,7.70
2018-05-19T03:57:16.441Z,7.73
2018-05-19T03:58:16.462Z,7.75
2018-05-19T03:59:16.393Z,7.76
2018-05-19T04:00:16.326Z,7.75
2018-05-19T04:01:16.600Z,7.79
2018-05-19T04:02:16.817Z,7.83
2018-05-19T04:03:17.004Z,7.87
2018-05-19T04:04:17.260Z,7.88
2018-05-19T04:05:17.513Z,7.83
2018-05-19T04:06:17.688Z,7.77
2018-05-19T04:07:18.136Z,7.83
2018-05-19T04:08:17.954Z,7.88
2018-05-19T04:09:18.179Z,7.95
2018-05-19T04:10:18.425Z,7.98
2018-05-19T04:11:18.460Z,7.94
2018-05-19T04:12:28.038Z,7.98
2018-05-19T04:13:21.305Z,8.01
2018-05-19T04:14:21.593Z,7.94
2018-05-19T04:15:21.804Z,8.01
2018-05-19T04:17:19.397Z,7.98
2018-05-19T04:18:19.535Z,8.08
2018-05-19T04:19:19.643Z,8.12
2018-05-19T04:20:19.913Z,8.09
2018-05-19T04:21:20.008Z,8.10
2018-05-19T04:22:20.237Z,8.13
2018-05-19T04:23:20.223Z,8.16
2018-05-19T04:24:20.625Z,8.19
2018-05-19T04:25:20.840Z,8.18
2018-05-19T04:26:20.874Z,8.24
2018-05-19T04:27:21.088Z,8.26
2018-05-19T04:28:21.235Z,8.37
2018-05-19T04:29:21.236Z,8.44
2018-05-19T04:30:21.455Z,8.44
2018-05-19T04:31:21.683Z,8.56
2018-05-19T04:32:21.992Z,8.56
2018-05-19T04:33:22.328Z,8.66
2018-05-19T04:34:22.308Z,8.61
2018-05-19T04:35:22.568Z,8.73
2018-05-19T04:36:23.009Z,8.71
2018-05-19T04:37:22.904Z,8.78
2018-05-19T04:38:22.981Z,8.81
2018-05-19T04:39:22.955Z,8.79
2018-05-19T04:40:23.582Z,8.78
2018-05-19T04:41:24.127Z,8.87
2018-05-19T04:42:25.124Z,8.87
2018-05-19T04:43:23.989Z,8.82
2018-05-19T04:44:24.213Z,8.88
2018-05-19T04:45:24.446Z,8.88
2018-05-19T04:46:24.591Z,8.87
2018-05-19T04:47:25.610Z,8.84
2018-05-19T04:48:25.205Z,8.89
2018-05-19T04:49:26.240Z,8.84
2018-05-19T04:50:25.220Z,8.92
2018-05-19T04:51:25.135Z,8.97
2018-05-19T04:52:25.283Z,8.92
2018-05-19T04:53:25.639Z,8.94
2018-05-19T04:54:25.748Z,8.97
2018-05-19T04:55:26.160Z,9.03
2018-05-19T04:56:26.047Z,9.00
2018-05-19T04:57:26.372Z,9.00
2018-05-19T04:58:26.368Z,9.13
2018-05-19T04:59:26.745Z,9.11
2018-05-19T05:00:26.799Z,9.13
2018-05-19T05:01:27.188Z,9.04
2018-05-19T05:02:27.275Z,9.21
2018-05-19T05:03:27.594Z,9.22
2018-05-19T05:04:27.802Z,9.36
2018-05-19T05:05:27.865Z,9.40
2018-05-19T05:06:28.405Z,9.37
2018-05-19T05:07:28.298Z,9.55
2018-05-19T05:08:28.480Z,9.46
2018-05-19T05:09:28.656Z,9.61
2018-05-19T05:10:28.810Z,9.62
2018-05-19T05:11:29.059Z,9.56
2018-05-19T05:12:29.177Z,9.55
2018-05-19T05:13:29.447Z,9.51
2018-05-19T05:14:29.555Z,9.55
2018-05-19T05:15:29.585Z,9.47
2018-05-19T05:16:29.720Z,9.61
2018-05-19T05:17:29.929Z,9.56
2018-05-19T05:18:30.051Z,9.48
2018-05-19T05:19:30.303Z,9.54
2018-05-19T05:20:30.371Z,9.59
2018-05-19T05:21:30.561Z,9.69
2018-05-19T05:22:30.733Z,9.69
2018-05-19T05:23:30.930Z,9.73
2018-05-19T05:24:31.031Z,9.73
2018-05-19T05:25:31.197Z,9.76
2018-05-19T05:26:31.357Z,9.83
2018-05-19T05:27:31.536Z,9.92
2018-05-19T05:28:31.821Z,9.92
2018-05-19T05:29:31.930Z,9.98
2018-05-19T05:30:32.122Z,10.01
2018-05-19T05:31:32.432Z,10.05
2018-05-19T05:32:32.573Z,10.15
2018-05-19T05:33:32.802Z,10.16
2018-05-19T05:34:33.791Z,10.25
2018-05-19T05:35:32.983Z,10.33
2018-05-19T05:36:33.178Z,10.38
2018-05-19T05:37:34.176Z,10.49
2018-05-19T05:38:33.566Z,10.51
2018-05-19T05:39:33.748Z,10.51
2018-05-19T05:42:31.128Z,10.60
2018-05-19T05:43:30.864Z,10.69
2018-05-19T05:44:31.265Z,10.82
2018-05-19T05:45:31.580Z,10.72
2018-05-19T05:46:30.451Z,10.74
2018-05-19T05:47:30.602Z,10.76
2018-05-19T05:48:31.795Z,10.75
2018-05-19T05:49:31.160Z,10.71
2018-05-19T05:50:29.733Z,10.87
2018-05-19T05:51:30.172Z,10.78
2018-05-19T05:52:30.266Z,10.81
2018-05-19T05:53:30.163Z,10.97
2018-05-19T05:54:30.456Z,11.10
2018-05-19T05:55:30.487Z,11.10
2018-05-19T05:56:30.808Z,11.05
2018-05-19T05:57:30.935Z,10.97
2018-05-19T05:58:31.060Z,11.10
2018-05-19T05:59:31.380Z,11.27
2018-05-19T06:00:32.255Z,11.26
2018-05-19T06:01:31.624Z,11.25
2018-05-19T06:02:31.775Z,11.41
2018-05-19T06:03:31.899Z,11.55
2018-05-19T06:04:32.105Z,11.60
2018-05-19T06:05:32.283Z,11.51
2018-05-19T06:06:32.451Z,11.54
2018-05-19T06:07:33.273Z,11.52
2018-05-19T06:08:32.740Z,11.69
2018-05-19T06:09:32.916Z,11.83
2018-05-19T06:10:33.116Z,11.80
2018-05-19T06:11:33.243Z,11.99
2018-05-19T06:12:33.456Z,11.94
2018-05-19T06:13:33.603Z,12.13
2018-05-19T06:14:33.805Z,12.06
2018-05-19T06:15:33.931Z,12.09
2018-05-19T06:16:34.052Z,12.22
2018-05-19T06:17:34.232Z,12.28
2018-05-19T06:18:34.382Z,12.40
2018-05-19T06:19:34.430Z,12.36
2018-05-19T06:20:34.707Z,12.39
2018-05-19T06:21:34.804Z,12.42
2018-05-19T06:22:35.069Z,12.58
2018-05-19T06:23:35.181Z,12.68
2018-05-19T06:24:35.277Z,12.72
2018-05-19T06:25:35.628Z,12.76
2018-05-19T06:26:35.704Z,12.70
2018-05-19T06:27:36.614Z,12.86
2018-05-19T06:28:36.796Z,12.75
2018-05-19T06:33:13.767Z,13.11
2018-05-19T06:34:14.600Z,13.13
2018-05-19T06:35:19.578Z,12.98
2018-05-19T06:37:19.663Z,13.08
2018-05-19T06:38:14.366Z,13.35
2018-05-19T06:39:14.680Z,13.33
2018-05-19T06:40:12.638Z,13.35
2018-05-19T06:41:12.786Z,13.38
2018-05-19T06:42:13.016Z,13.50
2018-05-19T06:43:13.155Z,13.46
2018-05-19T06:44:13.189Z,13.53
2018-05-19T06:45:13.355Z,13.59
2018-05-19T06:46:13.566Z,13.59
2018-05-19T06:47:13.720Z,13.68
2018-05-19T06:48:14.036Z,13.70
2018-05-19T06:49:14.151Z,13.74
2018-05-19T06:50:14.295Z,13.67
2018-05-19T06:51:14.490Z,13.74
2018-05-19T06:52:14.741Z,13.68
2018-05-19T06:53:15.109Z,13.79
2018-05-19T06:54:16.749Z,13.81
2018-05-19T06:55:15.207Z,13.90
2018-05-19T06:56:15.313Z,13.92
2018-05-19T06:57:54.692Z,14.00
2018-05-19T06:58:15.747Z,13.89
2018-05-19T06:59:15.856Z,13.97
2018-05-19T07:00:16.134Z,14.12
2018-05-19T07:01:16.312Z,14.35
2018-05-19T07:02:16.449Z,14.47
2018-05-19T07:03:16.592Z,14.51
2018-05-19T07:04:16.733Z,14.66
2018-05-19T07:05:16.950Z,14.79
2018-05-19T07:06:17.152Z,14.86
2018-05-19T07:07:17.247Z,15.07
2018-05-19T07:08:17.493Z,15.06
2018-05-19T07:09:17.699Z,15.06
2018-05-19T07:10:17.891Z,15.11
2018-05-19T07:11:17.948Z,15.22
2018-05-19T07:12:18.212Z,15.09
2018-05-19T07:13:18.240Z,15.14
2018-05-19T07:14:34.724Z,15.24
2018-05-19T07:15:20.896Z,15.36
2018-05-19T07:16:20.602Z,15.33
2018-05-19T07:17:19.455Z,15.24
2018-05-19T07:18:19.107Z,15.35
2018-05-19T07:19:19.346Z,15.47
2018-05-19T07:20:19.411Z,15.47
2018-05-19T07:21:19.546Z,15.52
2018-05-19T07:22:19.743Z,15.52
2018-05-19T07:23:19.903Z,15.52
2018-05-19T07:24:20.084Z,15.65
2018-05-19T07:25:20.373Z,15.70
2018-05-19T07:26:20.536Z,15.67
2018-05-19T07:27:20.682Z,15.72
2018-05-19T07:28:20.791Z,15.72
2018-05-19T07:29:20.891Z,16.00
2018-05-19T07:30:21.042Z,16.05
2018-05-19T07:31:21.235Z,16.16
2018-05-19T07:32:21.434Z,16.16
2018-05-19T07:33:21.596Z,16.38
2018-05-19T07:34:21.744Z,16.24
2018-05-19T07:35:21.931Z,16.38
2018-05-19T07:36:22.036Z,16.47
2018-05-19T07:37:22.210Z,16.46
2018-05-19T07:38:22.377Z,16.57
2018-05-19T07:39:22.604Z,16.72
2018-05-19T07:40:22.748Z,16.60
2018-05-19T07:41:22.939Z,16.71
2018-05-19T07:42:23.070Z,16.87
2018-05-19T07:43:23.212Z,16.75
2018-05-19T07:44:23.405Z,16.86
2018-05-19T07:45:23.592Z,16.83
2018-05-19T07:46:23.778Z,17.04
2018-05-19T07:47:23.904Z,16.94
2018-05-19T07:48:24.083Z,16.93
2018-05-19T07:49:24.233Z,16.93
2018-05-19T07:50:24.419Z,17.02
2018-05-19T07:51:24.624Z,17.15
2018-05-19T07:52:24.717Z,17.12
2018-05-19T07:53:24.864Z,17.09
2018-05-19T07:54:25.127Z,17.20
2018-05-19T07:55:25.189Z,17.14
2018-05-19T07:56:25.543Z,17.14
2018-05-19T07:57:25.729Z,17.19
2018-05-19T07:58:25.861Z,17.06
2018-05-19T07:59:26.068Z,17.01
2018-05-19T08:00:26.212Z,17.12
2018-05-19T08:01:26.393Z,17.09
2018-05-19T08:02:26.562Z,17.11
2018-05-19T08:03:26.716Z,17.01
2018-05-19T08:04:27.795Z,16.96
2018-05-19T08:05:27.074Z,16.89
2018-05-19T08:06:27.290Z,17.11
2018-05-19T08:07:27.537Z,17.23
2018-05-19T08:08:27.638Z,17.20
2018-05-19T08:09:28.648Z,17.19
2018-05-19T08:10:27.952Z,17.19
2018-05-19T08:11:28.049Z,17.33
2018-05-19T08:12:28.261Z,17.70
2018-05-19T08:13:28.470Z,17.85
2018-05-19T08:14:28.568Z,17.95
2018-05-19T08:15:28.857Z,18.10
2018-05-19T08:16:28.944Z,18.28
2018-05-19T08:17:29.140Z,18.49
2018-05-19T08:18:29.305Z,18.59
2018-05-19T08:19:29.455Z,18.65
2018-05-19T08:20:29.652Z,18.66
2018-05-19T08:21:29.748Z,18.75
2018-05-19T08:22:30.095Z,18.80
2018-05-19T08:23:30.874Z,18.86
2018-05-19T08:24:30.356Z,18.80
2018-05-19T08:25:30.653Z,18.81
2018-05-19T08:26:30.894Z,18.77
2018-05-19T08:27:31.145Z,18.80
2018-05-19T08:28:31.404Z,18.33
2018-05-19T08:29:31.541Z,18.31
2018-05-19T08:30:32.636Z,18.33
2018-05-19T08:31:31.574Z,18.31
2018-05-19T08:32:32.085Z,18.31
2018-05-19T08:33:31.910Z,18.38
2018-05-19T08:34:32.090Z,18.37
2018-05-19T08:35:32.273Z,18.43
2018-05-19T08:36:32.487Z,18.25
2018-05-19T08:37:32.493Z,18.10
2018-05-19T08:38:32.690Z,18.05
2018-05-19T08:39:32.862Z,18.15
2018-05-19T08:40:33.057Z,18.26
2018-05-19T08:41:33.207Z,18.28
2018-05-19T08:42:33.389Z,18.63
2018-05-19T08:43:33.505Z,19.00
2018-05-19T08:44:33.820Z,19.16
2018-05-19T08:45:33.914Z,19.37
2018-05-19T08:46:34.363Z,19.40
2018-05-19T08:47:34.312Z,19.09
2018-05-19T08:48:34.368Z,19.18
2018-05-19T08:49:34.538Z,18.92
2018-05-19T08:50:34.768Z,18.58
2018-05-19T08:51:35.214Z,18.41
2018-05-19T08:52:35.248Z,18.55
2018-05-19T08:53:36.638Z,18.13
2018-05-19T08:54:35.447Z,18.19
2018-05-19T08:55:35.700Z,18.23
2018-05-19T08:56:35.790Z,17.98
2018-05-19T08:57:36.045Z,17.64
2018-05-19T08:58:36.620Z,17.67
2018-05-19T08:59:36.382Z,17.76
2018-05-19T09:00:36.490Z,17.85
2018-05-19T09:01:36.659Z,17.87
2018-05-19T09:02:36.893Z,17.79
2018-05-19T09:03:37.202Z,17.74
2018-05-19T09:04:37.519Z,17.65
2018-05-19T09:05:37.758Z,17.67
2018-05-19T09:06:37.746Z,17.89
2018-05-19T09:07:37.924Z,17.98
2018-05-19T09:09:40.855Z,18.37
2018-05-19T09:10:38.420Z,18.50
2018-05-19T09:11:38.841Z,18.71
2018-05-19T09:12:39.102Z,18.80
2018-05-19T09:13:39.186Z,18.86
2018-05-19T09:14:42.317Z,19.02
2018-05-19T09:15:40.091Z,18.99
2018-05-19T09:16:39.669Z,18.65
2018-05-19T09:17:39.953Z,18.74
2018-05-19T09:18:40.327Z,18.65
2018-05-19T09:19:40.401Z,18.38
2018-05-19T09:20:40.433Z,18.44
2018-05-19T09:21:40.540Z,18.43
2018-05-19T09:22:40.869Z,18.38
2018-05-19T09:23:41.799Z,18.55
2018-05-19T09:24:41.315Z,18.49
2018-05-19T09:25:41.527Z,18.68
2018-05-19T09:26:41.395Z,18.81
2018-05-19T09:27:41.719Z,18.96
2018-05-19T09:28:42.047Z,18.95
2018-05-19T09:29:42.947Z,18.93
2018-05-19T09:30:42.303Z,18.50
2018-05-19T09:31:42.475Z,18.53
2018-05-19T09:32:42.517Z,18.89
2018-05-19T09:33:43.026Z,19.24
2018-05-19T09:34:43.010Z,19.48
2018-05-19T09:35:43.193Z,19.59
2018-05-19T09:38:27.454Z,19.94
2018-05-19T09:39:29.648Z,19.81
2018-05-19T09:40:28.260Z,19.94
2018-05-19T09:41:28.240Z,19.84
2018-05-19T09:42:29.788Z,19.79
2018-05-19T09:43:30.281Z,19.84
2018-05-19T09:44:29.874Z,19.86
2018-05-19T09:45:26.815Z,19.71
2018-05-19T09:46:26.595Z,19.92
2018-05-19T09:47:26.838Z,19.82
2018-05-19T09:48:26.958Z,19.86
2018-05-19T09:49:26.981Z,20.02
2018-05-19T09:50:27.358Z,20.18
2018-05-19T09:51:27.413Z,20.56
2018-05-19T09:52:27.639Z,20.39
2018-05-19T09:53:27.772Z,20.63
2018-05-19T09:54:27.978Z,20.78
2018-05-19T09:55:28.137Z,20.81
2018-05-19T09:56:28.469Z,20.74
2018-05-19T09:57:28.471Z,20.88
2018-05-19T09:58:28.820Z,21.33
2018-05-19T09:59:28.913Z,21.55
2018-05-19T10:00:29.140Z,22.00
2018-05-19T10:01:29.300Z,22.26
2018-05-19T10:02:29.600Z,21.95
2018-05-19T10:03:29.629Z,22.38
2018-05-19T10:04:29.782Z,22.59
2018-05-19T10:05:29.929Z,23.12
2018-05-19T10:06:30.375Z,23.21
2018-05-19T10:07:30.241Z,23.15
2018-05-19T10:08:30.378Z,23.66
2018-05-19T10:09:30.566Z,23.80
2018-05-19T10:10:30.910Z,23.96
2018-05-19T10:11:31.092Z,23.80
2018-05-19T10:12:31.180Z,23.58
2018-05-19T10:13:31.327Z,23.91
2018-05-19T10:14:31.583Z,24.03
2018-05-19T10:15:31.751Z,24.53
2018-05-19T10:16:31.961Z,24.80
2018-05-19T10:17:32.049Z,24.76
2018-05-19T10:18:32.431Z,24.89
2018-05-19T10:19:32.575Z,25.01
2018-05-19T10:20:45.060Z,24.88
2018-05-19T10:21:35.807Z,25.10
2018-05-19T10:22:35.808Z,25.17
2018-05-19T10:24:36.288Z,25.63
2018-05-19T10:25:36.839Z,25.69
2018-05-19T10:26:37.929Z,26.07
2018-05-19T10:27:36.930Z,25.69
2018-05-19T10:28:36.872Z,25.17
2018-05-19T10:29:37.018Z,24.78
2018-05-19T10:30:34.906Z,24.61
2018-05-19T10:31:37.914Z,24.73
2018-05-19T10:32:34.924Z,25.14
2018-05-19T10:33:35.331Z,25.23
2018-05-19T10:34:35.570Z,25.28
2018-05-19T10:35:35.876Z,25.43
2018-05-19T10:36:35.763Z,25.47
2018-05-19T10:37:40.235Z,25.78
2018-05-19T10:38:35.955Z,26.34
2018-05-19T10:39:36.219Z,26.37
2018-05-19T10:40:37.336Z,26.83
2018-05-19T10:41:36.554Z,26.88
2018-05-19T10:42:36.766Z,27.33
2018-05-19T10:43:36.902Z,27.78
2018-05-19T10:44:37.730Z,27.86
2018-05-19T10:45:37.457Z,27.80
2018-05-19T10:46:37.389Z,26.70
2018-05-19T10:47:37.676Z,26.77
2018-05-19T10:48:37.811Z,26.37
2018-05-19T10:49:37.995Z,26.06
2018-05-19T10:50:38.155Z,26.05
2018-05-19T10:51:38.350Z,25.58
2018-05-19T10:52:38.546Z,25.51
2018-05-19T10:53:39.060Z,25.13
2018-05-19T10:54:38.863Z,24.76
2018-05-19T10:55:38.951Z,24.39
2018-05-19T10:56:39.146Z,24.54
2018-05-19T10:57:39.389Z,24.74
2018-05-19T10:58:39.583Z,24.85
2018-05-19T10:59:39.937Z,24.57
2018-05-19T11:00:39.914Z,25.07
2018-05-19T11:01:40.161Z,24.77
2018-05-19T11:02:40.440Z,24.68
2018-05-19T11:03:40.556Z,24.76
2018-05-19T11:04:40.729Z,25.10
2018-05-19T11:05:40.992Z,25.47
2018-05-19T11:06:41.140Z,25.72
2018-05-19T11:07:41.205Z,26.19
2018-05-19T11:08:41.535Z,25.98
2018-05-19T11:09:41.615Z,26.16
2018-05-19T11:10:41.844Z,26.44
2018-05-19T11:11:42.070Z,26.75
2018-05-19T11:12:42.152Z,26.58
2018-05-19T11:13:42.370Z,26.21
2018-05-19T11:14:42.656Z,26.13
2018-05-19T11:15:42.817Z,25.93
2018-05-19T11:16:42.919Z,25.80
2018-05-19T11:17:43.119Z,25.59
2018-05-19T11:18:43.421Z,25.85
2018-05-19T11:19:43.460Z,25.98
2018-05-19T11:20:43.730Z,25.62
2018-05-19T11:21:43.880Z,25.07
2018-05-19T11:22:44.177Z,25.26
2018-05-19T11:23:44.115Z,25.40
2018-05-19T11:24:44.396Z,25.46
2018-05-19T11:25:44.721Z,25.65
2018-05-19T11:26:44.822Z,25.55
2018-05-19T11:27:44.989Z,25.08
2018-05-19T11:28:47.054Z,25.21
2018-05-19T11:35:52.288Z,26.88
2018-05-19T11:48:50.668Z,28.23
2018-05-19T11:49:50.214Z,28.35
2018-05-19T11:50:50.120Z,28.44
2018-05-19T11:51:48.649Z,28.37
2018-05-19T11:52:48.770Z,28.41
2018-05-19T11:53:48.996Z,28.25
2018-05-19T11:54:49.126Z,28.15
2018-05-19T11:55:49.271Z,28.19
2018-05-19T11:56:49.530Z,28.48
2018-05-19T11:57:49.786Z,28.20
2018-05-19T11:58:49.830Z,28.44
2018-05-19T11:59:50.103Z,28.23
2018-05-19T12:00:50.278Z,28.33
2018-05-19T12:01:50.393Z,28.29
2018-05-19T12:02:50.649Z,28.47
2018-05-19T12:03:50.771Z,28.49
2018-05-19T12:04:51.023Z,28.69
2018-05-19T12:05:51.290Z,28.89
2018-05-19T12:06:51.393Z,28.91
2018-05-19T12:07:51.489Z,28.72
2018-05-19T12:08:51.659Z,28.66
2018-05-19T12:09:51.961Z,28.51
2018-05-19T12:10:52.151Z,28.64
2018-05-19T12:11:52.372Z,28.38
2018-05-19T12:12:52.381Z,28.44
2018-05-19T12:13:52.674Z,28.45
2018-05-19T12:14:52.783Z,28.56
2018-05-19T12:15:52.968Z,28.45
2018-05-19T12:16:53.208Z,28.69
2018-05-19T12:17:53.363Z,27.44
2018-05-19T12:18:53.439Z,26.02
2018-05-19T12:19:53.626Z,25.41
2018-05-19T12:20:53.861Z,25.01
2018-05-19T12:21:54.004Z,25.01
2018-05-19T12:22:54.318Z,25.44
2018-05-19T12:23:54.327Z,25.23
2018-05-19T12:24:54.518Z,25.03
2018-05-19T12:25:54.813Z,24.60
2018-05-19T12:26:54.937Z,23.93
2018-05-19T12:27:55.063Z,23.73
2018-05-19T12:28:55.361Z,24.57
2018-05-19T12:29:55.451Z,25.43
2018-05-19T12:30:55.705Z,25.85
2018-05-19T12:31:55.817Z,26.48
2018-05-19T12:32:55.953Z,26.83
2018-05-19T12:33:56.191Z,26.85
2018-05-19T12:34:56.454Z,27.40
2018-05-19T12:35:56.564Z,27.26
2018-05-19T12:36:56.758Z,27.37
2018-05-19T12:37:56.871Z,27.36
2018-05-19T12:38:57.072Z,27.47
2018-05-19T12:39:57.192Z,27.74
2018-05-19T12:40:57.375Z,28.01
2018-05-19T12:41:57.508Z,28.37
2018-05-19T12:42:57.947Z,28.35
2018-05-19T12:43:57.961Z,28.44
2018-05-19T12:44:58.258Z,27.95
2018-05-19T12:45:58.321Z,27.73
2018-05-19T12:46:58.579Z,27.33
2018-05-19T12:47:58.747Z,27.67
2018-05-19T12:48:58.972Z,27.98
2018-05-19T12:49:59.113Z,27.80
2018-05-19T12:50:59.250Z,28.01
2018-05-19T12:51:59.415Z,28.27
2018-05-19T12:52:59.786Z,28.32
2018-05-19T12:53:59.791Z,28.45
2018-05-19T12:54:59.947Z,28.76
2018-05-19T12:56:00.244Z,28.11
2018-05-19T12:57:00.356Z,27.63
2018-05-19T12:58:00.492Z,26.80
2018-05-19T12:59:00.696Z,25.99
2018-05-19T13:00:00.922Z,25.73
2018-05-19T13:01:01.004Z,25.96
2018-05-19T13:02:01.212Z,25.77
2018-05-19T13:03:01.376Z,25.47
2018-05-19T13:04:01.611Z,25.78
2018-05-19T13:05:01.789Z,26.44
2018-05-19T13:06:01.939Z,26.92
2018-05-19T13:07:02.145Z,27.65
2018-05-19T13:08:02.283Z,28.11
2018-05-19T13:09:02.490Z,28.11
2018-05-19T13:10:02.663Z,28.11
2018-05-19T13:11:02.836Z,28.29
2018-05-19T13:12:02.969Z,28.20
2018-05-19T13:13:03.173Z,27.29
2018-05-19T13:14:03.381Z,26.55
2018-05-19T13:15:03.547Z,25.62
2018-05-19T13:16:03.690Z,25.28
2018-05-19T13:17:03.924Z,24.57
2018-05-19T13:18:04.176Z,24.23
2018-05-19T13:19:04.221Z,23.99
2018-05-19T13:20:04.567Z,23.80
2018-05-19T13:21:04.629Z,23.73
2018-05-19T13:22:04.912Z,23.73
2018-05-19T13:23:04.989Z,23.61
2018-05-19T13:24:05.123Z,23.44
2018-05-19T13:25:05.391Z,24.02
2018-05-19T13:26:05.553Z,24.45
2018-05-19T13:27:05.671Z,24.89
2018-05-19T13:28:05.937Z,25.70
2018-05-19T13:29:06.101Z,26.34
2018-05-19T13:30:06.263Z,26.84
2018-05-19T13:31:06.439Z,27.36
2018-05-19T13:32:08.541Z,27.86
2018-05-19T13:33:06.836Z,28.19
2018-05-19T13:34:07.064Z,28.10
2018-05-19T13:35:07.135Z,28.11
2018-05-19T13:36:07.343Z,28.42
2018-05-19T13:37:07.507Z,28.30
2018-05-19T13:38:07.766Z,27.51
2018-05-19T13:39:07.887Z,27.30
2018-05-19T13:40:08.076Z,26.84
2018-05-19T13:41:08.246Z,27.05
2018-05-19T13:42:08.429Z,27.52
2018-05-19T13:43:08.616Z,27.68
2018-05-19T13:44:08.752Z,26.58
2018-05-19T13:45:08.891Z,26.16
2018-05-19T13:46:09.100Z,25.43
2018-05-19T13:47:09.271Z,24.93
2018-05-19T13:48:09.404Z,25.11
2018-05-19T13:49:09.588Z,24.92
2018-05-19T13:50:09.833Z,24.40
2018-05-19T13:51:09.952Z,23.91
2018-05-19T13:52:10.144Z,23.51
2018-05-19T13:53:10.236Z,23.23
2018-05-19T13:54:10.393Z,23.54
2018-05-19T13:55:10.578Z,24.11
2018-05-19T13:56:10.773Z,23.76
2018-05-19T13:57:10.991Z,24.03
2018-05-19T13:58:11.211Z,24.05
2018-05-19T13:59:11.337Z,23.66
2018-05-19T14:00:11.443Z,23.86
2018-05-19T14:01:11.721Z,24.23
2018-05-19T14:02:11.809Z,24.88
2018-05-19T14:03:12.044Z,25.59
2018-05-19T14:04:12.172Z,26.23
2018-05-19T14:05:12.368Z,26.44
2018-05-19T14:06:12.548Z,26.36
2018-05-19T14:07:12.628Z,26.88
2018-05-19T14:08:12.808Z,27.36
2018-05-19T14:09:13.026Z,27.82
2018-05-19T14:10:13.167Z,27.98
2018-05-19T14:11:13.394Z,28.14
2018-05-19T14:12:13.681Z,28.17
2018-05-19T14:13:13.813Z,28.02
2018-05-19T14:14:13.968Z,27.36
2018-05-19T14:15:14.129Z,27.47
2018-05-19T14:16:14.300Z,27.63
2018-05-19T14:17:14.482Z,28.14
2018-05-19T14:18:14.640Z,27.47
2018-05-19T14:19:14.797Z,26.92
2018-05-19T14:20:14.955Z,26.23
2018-05-19T14:21:15.141Z,26.38
2018-05-19T14:22:15.426Z,25.68
2018-05-19T14:23:15.505Z,25.77
2018-05-19T14:24:15.677Z,26.02
2018-05-19T14:25:15.821Z,26.52
2018-05-19T14:26:16.080Z,27.21
2018-05-19T14:27:16.206Z,27.68
2018-05-19T14:28:16.392Z,27.27
2018-05-19T14:29:16.557Z,26.75
2018-05-19T14:30:16.715Z,25.96
2018-05-19T14:31:16.949Z,25.77
2018-05-19T14:32:17.073Z,25.58
2018-05-19T14:33:17.252Z,25.21
2018-05-19T14:34:17.463Z,25.10
2018-05-19T14:35:17.607Z,25.68
2018-05-19T14:36:17.797Z,25.98
2018-05-19T14:37:17.962Z,26.07
2018-05-19T14:38:18.109Z,26.43
2018-05-19T14:39:18.375Z,26.63
2018-05-19T14:40:18.625Z,26.88
2018-05-19T14:41:18.667Z,27.32
2018-05-19T14:42:18.835Z,27.63
2018-05-19T14:43:19.045Z,27.87
2018-05-19T14:44:19.187Z,28.07
2018-05-19T14:45:19.386Z,28.08
2018-05-19T14:46:19.511Z,28.00
2018-05-19T14:47:19.725Z,28.27
2018-05-19T14:48:19.985Z,27.85
2018-05-19T14:49:20.053Z,27.75
2018-05-19T14:50:20.258Z,27.74
2018-05-19T14:51:20.490Z,27.03
2018-05-19T14:52:20.698Z,27.47
2018-05-19T14:53:20.757Z,27.52
2018-05-19T14:54:20.960Z,27.74
2018-05-19T14:55:21.161Z,27.55
2018-05-19T14:56:21.339Z,27.68
2018-05-19T14:57:21.524Z,27.15
2018-05-19T14:58:21.679Z,27.37
2018-05-19T14:59:21.852Z,27.60
2018-05-19T15:00:22.188Z,27.59
2018-05-19T15:01:22.199Z,27.80
2018-05-19T15:02:22.370Z,27.51
2018-05-19T15:03:22.567Z,27.49
2018-05-19T15:04:22.722Z,27.60
2018-05-19T15:05:23.594Z,27.05
2018-05-19T15:06:23.054Z,26.85
2018-05-19T15:07:23.352Z,26.00
2018-05-19T15:08:23.426Z,25.32
2018-05-19T15:09:23.568Z,24.61
2018-05-19T15:10:23.781Z,24.58
2018-05-19T15:11:23.982Z,24.51
2018-05-19T15:12:24.072Z,24.35
2018-05-19T15:13:24.297Z,24.53
2018-05-19T15:14:24.401Z,23.80
2018-05-19T15:15:24.649Z,23.28
2018-05-19T15:16:24.770Z,22.87
2018-05-19T15:17:25.039Z,22.73
2018-05-19T15:18:25.149Z,22.54
2018-05-19T15:19:25.426Z,22.73
2018-05-19T15:20:25.951Z,22.65
2018-05-19T15:21:25.623Z,22.50
2018-05-19T15:22:25.814Z,22.44
2018-05-19T15:23:25.935Z,22.39
2018-05-19T15:24:26.146Z,23.08
2018-05-19T15:25:26.375Z,23.54
2018-05-19T15:26:26.446Z,23.92
2018-05-19T15:27:26.544Z,24.50
2018-05-19T15:28:26.858Z,25.07
2018-05-19T15:29:26.931Z,25.41
2018-05-19T15:30:27.196Z,25.69
2018-05-19T15:31:27.303Z,25.83
2018-05-19T15:32:27.428Z,26.05
2018-05-19T15:33:27.701Z,26.26
2018-05-19T15:34:27.774Z,26.52
2018-05-19T15:35:28.034Z,26.38
2018-05-19T15:36:28.222Z,26.25
2018-05-19T15:37:28.681Z,26.15
2018-05-19T15:38:28.461Z,25.58
2018-05-19T15:39:28.683Z,25.73
2018-05-19T15:40:28.815Z,25.90
2018-05-19T15:41:29.091Z,25.48
2018-05-19T15:42:29.252Z,25.80
2018-05-19T15:43:29.371Z,25.96
2018-05-19T15:44:29.635Z,25.99
2018-05-19T15:45:29.763Z,26.07
2018-05-19T15:46:29.908Z,25.75
2018-05-19T15:47:30.143Z,25.80
2018-05-19T15:48:30.305Z,25.80
2018-05-19T15:49:30.430Z,25.78
2018-05-19T15:50:30.587Z,25.70
2018-05-19T15:51:30.840Z,25.65
2018-05-19T15:52:30.987Z,25.78
2018-05-19T15:53:31.179Z,25.99
2018-05-19T15:54:31.294Z,26.19
2018-05-19T15:55:31.454Z,26.33
2018-05-19T15:56:31.663Z,25.95
2018-05-19T15:57:31.816Z,25.68
2018-05-19T15:58:32.032Z,25.87
2018-05-19T15:59:32.185Z,25.98
2018-05-19T16:00:32.378Z,25.96
2018-05-19T16:01:32.601Z,26.10
2018-05-19T16:02:32.801Z,26.36
2018-05-19T16:03:32.943Z,25.60
2018-05-19T16:04:33.118Z,25.13
2018-05-19T16:05:33.253Z,24.76
2018-05-19T16:06:33.432Z,24.05
2018-05-19T16:07:33.641Z,23.65
2018-05-19T16:08:33.949Z,23.39
2018-05-19T16:09:33.905Z,23.00
2018-05-19T16:13:55.573Z,22.00
2018-05-19T16:14:42.898Z,22.18
2018-05-19T16:15:40.597Z,22.41
2018-05-19T16:16:40.905Z,22.54
2018-05-19T16:17:40.983Z,22.73
2018-05-19T16:18:41.247Z,23.13
2018-05-19T16:19:41.353Z,23.43
2018-05-19T16:20:41.454Z,23.54
2018-05-19T16:21:42.810Z,23.66
2018-05-19T16:22:42.080Z,23.74
2018-05-19T16:23:42.051Z,23.99
2018-05-19T16:24:42.173Z,23.91
2018-05-19T16:25:42.395Z,23.55
2018-05-19T16:26:42.618Z,23.63
2018-05-19T16:27:42.736Z,23.74
2018-05-19T16:28:42.889Z,23.32
2018-05-19T16:29:43.045Z,23.23
2018-05-19T16:30:43.221Z,23.20
2018-05-19T16:31:43.453Z,23.10
2018-05-19T16:32:43.633Z,23.00
2018-05-19T16:33:43.729Z,23.06